sensor_id;sensor_type;location;lat;lon;timestamp;P1;durP1;ratioP1;P2;durP2;ratioP2
37885;SDS011;23726;52.520;13.434;2022-10-30T00:00:19;21.45;;;15.38;;
37885;SDS011;23726;52.520;13.434;2022-10-30T00:02:45;22.65;;;15.38;;
37885;SDS011;23726;52.520;13.434;2022-10-30T00:05:11;21.25;;;15.68;;
37885;SDS011;23726;52.520;13.434;2022-10-30T00:07:37;21.45;;;15.07;;
37885;SDS011;23726;52.520;13.434;2022-10-30T00:10:03;23.83;;;16.02;;
37885;SDS011;23726;52.520;13.434;2022-10-30T00:12:28;21.38;;;14.30;;
37885;SDS011;23726;52.520;13.434;2022-10-30T00:14:54;20.63;;;15.13;;
37885;SDS011;23726;52.520;13.434;2022-10-30T00:17:20;23.98;;;14.60;;
37885;SDS011;23726;52.520;13.434;2022-10-30T00:19:45;24.17;;;15.80;;
37885;SDS011;23726;52.520;13.434;2022-10-30T00:22:11;20.30;;;15.05;;
37885;SDS011;23726;52.520;13.434;2022-10-30T00:24:37;22.88;;;15.23;;
37885;SDS011;23726;52.520;13.434;2022-10-30T00:27:02;20.15;;;14.93;;
37885;SDS011;23726;52.520;13.434;2022-10-30T00:29:28;20.42;;;14.70;;
37885;SDS011;23726;52.520;13.434;2022-10-30T00:31:53;20.35;;;14.57;;
37885;SDS011;23726;52.520;13.434;2022-10-30T00:34:19;22.48;;;15.40;;
37885;SDS011;23726;52.520;13.434;2022-10-30T00:36:45;20.67;;;14.73;;
37885;SDS011;23726;52.520;13.434;2022-10-30T00:39:10;22.15;;;14.35;;
37885;SDS011;23726;52.520;13.434;2022-10-30T00:41:36;23.75;;;15.55;;
37885;SDS011;23726;52.520;13.434;2022-10-30T00:47:27;20.08;;;14.55;;
37885;SDS011;23726;52.520;13.434;2022-10-30T00:52:47;22.63;;;14.57;;
37885;SDS011;23726;52.520;13.434;2022-10-30T00:55:19;18.55;;;14.57;;
37885;SDS011;23726;52.520;13.434;2022-10-30T00:58:00;22.45;;;15.00;;
37885;SDS011;23726;52.520;13.434;2022-10-30T01:00:31;18.17;;;13.98;;
37885;SDS011;23726;52.520;13.434;2022-10-30T01:02:59;16.80;;;14.68;;
37885;SDS011;23726;52.520;13.434;2022-10-30T01:05:26;17.25;;;13.90;;
37885;SDS011;23726;52.520;13.434;2022-10-30T01:07:54;20.02;;;14.65;;
37885;SDS011;23726;52.520;13.434;2022-10-30T01:10:19;18.25;;;15.02;;
37885;SDS011;23726;52.520;13.434;2022-10-30T01:12:46;20.67;;;14.85;;
37885;SDS011;23726;52.520;13.434;2022-10-30T01:15:12;20.85;;;14.63;;
37885;SDS011;23726;52.520;13.434;2022-10-30T01:17:45;19.50;;;14.13;;
37885;SDS011;23726;52.520;13.434;2022-10-30T01:29:02;16.13;;;13.65;;
37885;SDS011;23726;52.520;13.434;2022-10-30T01:31:58;20.95;;;14.73;;
37885;SDS011;23726;52.520;13.434;2022-10-30T01:34:48;20.75;;;15.02;;
37885;SDS011;23726;52.520;13.434;2022-10-30T01:40:27;19.52;;;14.55;;
37885;SDS011;23726;52.520;13.434;2022-10-30T01:42:54;20.65;;;15.63;;
37885;SDS011;23726;52.520;13.434;2022-10-30T01:45:24;19.38;;;15.20;;
37885;SDS011;23726;52.520;13.434;2022-10-30T01:53:54;21.27;;;15.32;;
37885;SDS011;23726;52.520;13.434;2022-10-30T01:56:45;21.58;;;15.35;;
37885;SDS011;23726;52.520;13.434;2022-10-30T01:59:36;19.45;;;15.18;;
37885;SDS011;23726;52.520;13.434;2022-10-30T02:02:06;17.88;;;14.70;;
37885;SDS011;23726;52.520;13.434;2022-10-30T02:04:32;19.95;;;14.50;;
37885;SDS011;23726;52.520;13.434;2022-10-30T02:06:58;19.02;;;14.45;;
37885;SDS011;23726;52.520;13.434;2022-10-30T02:09:24;18.63;;;15.00;;
37885;SDS011;23726;52.520;13.434;2022-10-30T02:11:50;18.48;;;15.05;;
37885;SDS011;23726;52.520;13.434;2022-10-30T02:14:19;20.20;;;14.93;;
37885;SDS011;23726;52.520;13.434;2022-10-30T02:16:50;20.83;;;15.00;;
37885;SDS011;23726;52.520;13.434;2022-10-30T02:19:18;19.85;;;15.15;;
37885;SDS011;23726;52.520;13.434;2022-10-30T02:21:44;19.20;;;14.35;;
37885;SDS011;23726;52.520;13.434;2022-10-30T02:24:09;21.27;;;14.80;;
37885;SDS011;23726;52.520;13.434;2022-10-30T02:26:36;22.17;;;14.15;;
37885;SDS011;23726;52.520;13.434;2022-10-30T02:29:03;16.52;;;14.00;;
37885;SDS011;23726;52.520;13.434;2022-10-30T02:31:29;17.73;;;14.85;;
37885;SDS011;23726;52.520;13.434;2022-10-30T02:33:54;19.80;;;14.80;;
37885;SDS011;23726;52.520;13.434;2022-10-30T02:36:20;19.33;;;15.55;;
37885;SDS011;23726;52.520;13.434;2022-10-30T02:38:45;18.92;;;14.65;;
37885;SDS011;23726;52.520;13.434;2022-10-30T02:41:11;20.05;;;13.65;;
37885;SDS011;23726;52.520;13.434;2022-10-30T02:43:38;20.60;;;14.95;;
37885;SDS011;23726;52.520;13.434;2022-10-30T02:46:04;20.02;;;14.73;;
37885;SDS011;23726;52.520;13.434;2022-10-30T02:48:30;18.75;;;14.20;;
37885;SDS011;23726;52.520;13.434;2022-10-30T02:51:00;19.00;;;15.15;;
37885;SDS011;23726;52.520;13.434;2022-10-30T02:53:26;19.02;;;15.20;;
37885;SDS011;23726;52.520;13.434;2022-10-30T02:55:52;18.30;;;13.88;;
37885;SDS011;23726;52.520;13.434;2022-10-30T02:58:18;16.55;;;13.73;;
37885;SDS011;23726;52.520;13.434;2022-10-30T03:00:43;18.52;;;14.70;;
37885;SDS011;23726;52.520;13.434;2022-10-30T03:03:09;19.58;;;14.40;;
37885;SDS011;23726;52.520;13.434;2022-10-30T03:05:34;18.80;;;13.82;;
37885;SDS011;23726;52.520;13.434;2022-10-30T03:08:00;18.98;;;14.50;;
37885;SDS011;23726;52.520;13.434;2022-10-30T03:10:25;19.60;;;14.70;;
37885;SDS011;23726;52.520;13.434;2022-10-30T03:12:51;18.50;;;14.18;;
37885;SDS011;23726;52.520;13.434;2022-10-30T03:15:16;19.30;;;14.70;;
37885;SDS011;23726;52.520;13.434;2022-10-30T03:17:43;18.45;;;15.02;;
37885;SDS011;23726;52.520;13.434;2022-10-30T03:20:09;19.98;;;14.52;;
37885;SDS011;23726;52.520;13.434;2022-10-30T03:22:34;17.35;;;14.05;;
37885;SDS011;23726;52.520;13.434;2022-10-30T03:25:00;16.85;;;14.00;;
37885;SDS011;23726;52.520;13.434;2022-10-30T03:27:25;17.60;;;14.45;;
37885;SDS011;23726;52.520;13.434;2022-10-30T03:29:51;19.02;;;14.82;;
37885;SDS011;23726;52.520;13.434;2022-10-30T03:32:16;19.75;;;14.98;;
37885;SDS011;23726;52.520;13.434;2022-10-30T03:34:42;16.42;;;14.13;;
37885;SDS011;23726;52.520;13.434;2022-10-30T03:37:07;17.52;;;13.75;;
37885;SDS011;23726;52.520;13.434;2022-10-30T03:39:33;17.88;;;13.88;;
37885;SDS011;23726;52.520;13.434;2022-10-30T03:41:58;20.90;;;14.35;;
37885;SDS011;23726;52.520;13.434;2022-10-30T03:44:24;22.38;;;14.27;;
37885;SDS011;23726;52.520;13.434;2022-10-30T03:46:50;16.90;;;13.77;;
37885;SDS011;23726;52.520;13.434;2022-10-30T03:49:16;19.48;;;14.45;;
37885;SDS011;23726;52.520;13.434;2022-10-30T03:51:41;19.20;;;14.63;;
37885;SDS011;23726;52.520;13.434;2022-10-30T03:54:07;20.67;;;14.40;;
37885;SDS011;23726;52.520;13.434;2022-10-30T03:56:32;18.40;;;13.70;;
37885;SDS011;23726;52.520;13.434;2022-10-30T03:58:58;20.00;;;14.60;;
37885;SDS011;23726;52.520;13.434;2022-10-30T04:01:23;17.17;;;14.20;;
37885;SDS011;23726;52.520;13.434;2022-10-30T04:03:49;18.48;;;14.90;;
37885;SDS011;23726;52.520;13.434;2022-10-30T04:06:14;16.10;;;13.60;;
37885;SDS011;23726;52.520;13.434;2022-10-30T04:08:40;17.50;;;14.25;;
37885;SDS011;23726;52.520;13.434;2022-10-30T04:11:05;19.15;;;14.70;;
37885;SDS011;23726;52.520;13.434;2022-10-30T04:13:34;19.00;;;13.93;;
37885;SDS011;23726;52.520;13.434;2022-10-30T04:16:00;19.25;;;14.43;;
37885;SDS011;23726;52.520;13.434;2022-10-30T04:18:26;16.13;;;13.18;;
37885;SDS011;23726;52.520;13.434;2022-10-30T04:20:53;18.70;;;14.55;;
37885;SDS011;23726;52.520;13.434;2022-10-30T04:23:19;18.45;;;14.27;;
37885;SDS011;23726;52.520;13.434;2022-10-30T04:25:45;16.95;;;13.40;;
37885;SDS011;23726;52.520;13.434;2022-10-30T04:28:11;16.95;;;13.85;;
37885;SDS011;23726;52.520;13.434;2022-10-30T04:30:37;19.15;;;14.52;;
37885;SDS011;23726;52.520;13.434;2022-10-30T04:33:04;16.30;;;13.68;;
37885;SDS011;23726;52.520;13.434;2022-10-30T04:35:31;17.10;;;13.82;;
37885;SDS011;23726;52.520;13.434;2022-10-30T04:37:59;16.40;;;13.60;;
37885;SDS011;23726;52.520;13.434;2022-10-30T04:40:28;17.88;;;14.40;;
37885;SDS011;23726;52.520;13.434;2022-10-30T04:42:55;17.70;;;14.32;;
37885;SDS011;23726;52.520;13.434;2022-10-30T04:45:21;17.85;;;13.70;;
37885;SDS011;23726;52.520;13.434;2022-10-30T04:47:47;18.08;;;14.05;;
37885;SDS011;23726;52.520;13.434;2022-10-30T04:50:12;14.27;;;12.73;;
37885;SDS011;23726;52.520;13.434;2022-10-30T04:52:38;16.80;;;13.15;;
37885;SDS011;23726;52.520;13.434;2022-10-30T04:55:05;17.92;;;13.57;;
37885;SDS011;23726;52.520;13.434;2022-10-30T04:57:33;16.55;;;13.45;;
37885;SDS011;23726;52.520;13.434;2022-10-30T05:00:00;23.45;;;13.65;;
37885;SDS011;23726;52.520;13.434;2022-10-30T05:02:28;15.52;;;13.45;;
37885;SDS011;23726;52.520;13.434;2022-10-30T05:04:53;16.38;;;13.30;;
37885;SDS011;23726;52.520;13.434;2022-10-30T05:07:19;17.73;;;13.98;;
37885;SDS011;23726;52.520;13.434;2022-10-30T05:09:44;18.92;;;13.32;;
37885;SDS011;23726;52.520;13.434;2022-10-30T05:12:10;16.90;;;13.15;;
37885;SDS011;23726;52.520;13.434;2022-10-30T05:14:35;18.20;;;12.80;;
37885;SDS011;23726;52.520;13.434;2022-10-30T05:17:02;17.63;;;13.57;;
37885;SDS011;23726;52.520;13.434;2022-10-30T05:19:27;15.23;;;13.27;;
37885;SDS011;23726;52.520;13.434;2022-10-30T05:21:53;18.17;;;12.95;;
37885;SDS011;23726;52.520;13.434;2022-10-30T05:24:19;21.70;;;14.02;;
37885;SDS011;23726;52.520;13.434;2022-10-30T05:26:45;17.52;;;12.90;;
37885;SDS011;23726;52.520;13.434;2022-10-30T05:29:11;17.92;;;13.20;;
37885;SDS011;23726;52.520;13.434;2022-10-30T05:31:37;18.23;;;13.52;;
37885;SDS011;23726;52.520;13.434;2022-10-30T05:34:03;16.23;;;12.88;;
37885;SDS011;23726;52.520;13.434;2022-10-30T05:36:30;16.73;;;13.07;;
37885;SDS011;23726;52.520;13.434;2022-10-30T05:38:55;17.85;;;13.68;;
37885;SDS011;23726;52.520;13.434;2022-10-30T05:41:21;16.63;;;12.68;;
37885;SDS011;23726;52.520;13.434;2022-10-30T05:43:46;15.27;;;13.00;;
37885;SDS011;23726;52.520;13.434;2022-10-30T05:46:12;15.45;;;12.63;;
37885;SDS011;23726;52.520;13.434;2022-10-30T05:48:37;15.68;;;12.52;;
37885;SDS011;23726;52.520;13.434;2022-10-30T05:51:04;16.77;;;13.45;;
37885;SDS011;23726;52.520;13.434;2022-10-30T05:53:30;15.52;;;12.93;;
37885;SDS011;23726;52.520;13.434;2022-10-30T05:55:56;15.07;;;12.93;;
37885;SDS011;23726;52.520;13.434;2022-10-30T05:58:23;17.10;;;12.80;;
37885;SDS011;23726;52.520;13.434;2022-10-30T06:00:48;16.48;;;12.23;;
37885;SDS011;23726;52.520;13.434;2022-10-30T06:03:14;17.98;;;12.77;;
37885;SDS011;23726;52.520;13.434;2022-10-30T06:05:40;16.33;;;12.00;;
37885;SDS011;23726;52.520;13.434;2022-10-30T06:08:09;15.73;;;12.65;;
37885;SDS011;23726;52.520;13.434;2022-10-30T06:10:35;16.13;;;12.25;;
37885;SDS011;23726;52.520;13.434;2022-10-30T06:13:02;15.98;;;12.68;;
37885;SDS011;23726;52.520;13.434;2022-10-30T06:15:30;17.58;;;12.70;;
37885;SDS011;23726;52.520;13.434;2022-10-30T06:17:56;16.80;;;12.20;;
37885;SDS011;23726;52.520;13.434;2022-10-30T06:20:24;14.98;;;12.52;;
37885;SDS011;23726;52.520;13.434;2022-10-30T06:23:01;16.38;;;12.23;;
37885;SDS011;23726;52.520;13.434;2022-10-30T06:25:29;17.30;;;12.73;;
37885;SDS011;23726;52.520;13.434;2022-10-30T06:27:57;16.25;;;12.75;;
37885;SDS011;23726;52.520;13.434;2022-10-30T06:30:23;14.75;;;11.80;;
37885;SDS011;23726;52.520;13.434;2022-10-30T06:32:54;17.65;;;13.40;;
37885;SDS011;23726;52.520;13.434;2022-10-30T06:35:23;15.98;;;11.98;;
37885;SDS011;23726;52.520;13.434;2022-10-30T06:37:49;15.13;;;11.75;;
37885;SDS011;23726;52.520;13.434;2022-10-30T06:40:17;17.17;;;12.05;;
37885;SDS011;23726;52.520;13.434;2022-10-30T06:42:44;15.02;;;12.35;;
37885;SDS011;23726;52.520;13.434;2022-10-30T06:45:10;17.00;;;12.40;;
37885;SDS011;23726;52.520;13.434;2022-10-30T06:47:37;15.35;;;12.75;;
37885;SDS011;23726;52.520;13.434;2022-10-30T06:50:04;16.73;;;12.18;;
37885;SDS011;23726;52.520;13.434;2022-10-30T06:52:31;14.52;;;11.95;;
37885;SDS011;23726;52.520;13.434;2022-10-30T06:54:57;16.35;;;12.15;;
37885;SDS011;23726;52.520;13.434;2022-10-30T06:57:22;17.88;;;12.00;;
37885;SDS011;23726;52.520;13.434;2022-10-30T06:59:48;15.88;;;11.82;;
37885;SDS011;23726;52.520;13.434;2022-10-30T07:02:13;17.45;;;12.60;;
37885;SDS011;23726;52.520;13.434;2022-10-30T07:04:39;16.85;;;11.75;;
37885;SDS011;23726;52.520;13.434;2022-10-30T07:07:04;14.63;;;11.98;;
37885;SDS011;23726;52.520;13.434;2022-10-30T07:09:30;16.05;;;12.05;;
37885;SDS011;23726;52.520;13.434;2022-10-30T07:11:55;14.88;;;11.52;;
37885;SDS011;23726;52.520;13.434;2022-10-30T07:14:21;14.95;;;11.23;;
37885;SDS011;23726;52.520;13.434;2022-10-30T07:16:46;15.13;;;11.85;;
37885;SDS011;23726;52.520;13.434;2022-10-30T07:19:12;13.70;;;11.65;;
37885;SDS011;23726;52.520;13.434;2022-10-30T07:21:37;15.80;;;11.95;;
37885;SDS011;23726;52.520;13.434;2022-10-30T07:24:03;13.50;;;11.48;;
37885;SDS011;23726;52.520;13.434;2022-10-30T07:26:29;13.90;;;10.63;;
37885;SDS011;23726;52.520;13.434;2022-10-30T07:28:55;16.65;;;12.07;;
37885;SDS011;23726;52.520;13.434;2022-10-30T07:31:20;16.20;;;12.18;;
37885;SDS011;23726;52.520;13.434;2022-10-30T07:33:46;15.25;;;11.70;;
37885;SDS011;23726;52.520;13.434;2022-10-30T07:36:11;13.35;;;11.18;;
37885;SDS011;23726;52.520;13.434;2022-10-30T07:38:38;12.77;;;11.23;;
37885;SDS011;23726;52.520;13.434;2022-10-30T07:41:04;14.05;;;12.05;;
37885;SDS011;23726;52.520;13.434;2022-10-30T07:43:30;12.23;;;10.98;;
37885;SDS011;23726;52.520;13.434;2022-10-30T07:45:55;16.63;;;11.80;;
37885;SDS011;23726;52.520;13.434;2022-10-30T07:48:21;14.52;;;12.18;;
37885;SDS011;23726;52.520;13.434;2022-10-30T07:50:47;15.52;;;11.90;;
37885;SDS011;23726;52.520;13.434;2022-10-30T07:53:12;14.88;;;11.50;;
37885;SDS011;23726;52.520;13.434;2022-10-30T07:55:38;13.60;;;11.55;;
37885;SDS011;23726;52.520;13.434;2022-10-30T07:58:03;14.40;;;11.25;;
37885;SDS011;23726;52.520;13.434;2022-10-30T08:00:29;15.30;;;11.35;;
37885;SDS011;23726;52.520;13.434;2022-10-30T08:02:55;13.77;;;11.43;;
37885;SDS011;23726;52.520;13.434;2022-10-30T08:05:21;16.02;;;11.65;;
37885;SDS011;23726;52.520;13.434;2022-10-30T08:07:47;13.52;;;11.18;;
37885;SDS011;23726;52.520;13.434;2022-10-30T08:10:12;12.82;;;11.32;;
37885;SDS011;23726;52.520;13.434;2022-10-30T08:12:38;14.02;;;11.82;;
37885;SDS011;23726;52.520;13.434;2022-10-30T08:15:06;14.75;;;11.70;;
37885;SDS011;23726;52.520;13.434;2022-10-30T08:17:32;13.60;;;11.35;;
37885;SDS011;23726;52.520;13.434;2022-10-30T08:20:07;14.85;;;11.40;;
37885;SDS011;23726;52.520;13.434;2022-10-30T08:22:33;13.35;;;10.98;;
37885;SDS011;23726;52.520;13.434;2022-10-30T08:24:59;14.25;;;10.68;;
37885;SDS011;23726;52.520;13.434;2022-10-30T08:27:24;13.85;;;11.20;;
37885;SDS011;23726;52.520;13.434;2022-10-30T08:29:51;14.43;;;11.05;;
37885;SDS011;23726;52.520;13.434;2022-10-30T08:32:16;14.35;;;11.48;;
37885;SDS011;23726;52.520;13.434;2022-10-30T08:34:42;14.93;;;11.57;;
37885;SDS011;23726;52.520;13.434;2022-10-30T08:37:07;15.60;;;10.88;;
37885;SDS011;23726;52.520;13.434;2022-10-30T08:39:33;15.30;;;11.65;;
37885;SDS011;23726;52.520;13.434;2022-10-30T08:41:58;14.10;;;11.32;;
37885;SDS011;23726;52.520;13.434;2022-10-30T08:44:24;15.18;;;10.73;;
37885;SDS011;23726;52.520;13.434;2022-10-30T08:46:49;13.70;;;10.98;;
37885;SDS011;23726;52.520;13.434;2022-10-30T08:49:15;14.80;;;11.15;;
37885;SDS011;23726;52.520;13.434;2022-10-30T08:51:40;12.88;;;11.07;;
37885;SDS011;23726;52.520;13.434;2022-10-30T08:54:08;12.98;;;11.20;;
37885;SDS011;23726;52.520;13.434;2022-10-30T08:56:34;13.75;;;11.50;;
37885;SDS011;23726;52.520;13.434;2022-10-30T08:58:59;15.00;;;11.13;;
37885;SDS011;23726;52.520;13.434;2022-10-30T09:01:25;15.77;;;11.38;;
37885;SDS011;23726;52.520;13.434;2022-10-30T09:03:50;13.00;;;10.18;;
37885;SDS011;23726;52.520;13.434;2022-10-30T09:06:16;14.45;;;11.43;;
37885;SDS011;23726;52.520;13.434;2022-10-30T09:08:41;16.67;;;11.20;;
37885;SDS011;23726;52.520;13.434;2022-10-30T09:11:07;16.40;;;11.00;;
37885;SDS011;23726;52.520;13.434;2022-10-30T09:13:32;14.38;;;11.25;;
37885;SDS011;23726;52.520;13.434;2022-10-30T09:15:58;13.30;;;10.77;;
37885;SDS011;23726;52.520;13.434;2022-10-30T09:18:28;14.35;;;11.40;;
37885;SDS011;23726;52.520;13.434;2022-10-30T09:20:53;14.20;;;11.65;;
37885;SDS011;23726;52.520;13.434;2022-10-30T09:23:19;13.77;;;10.93;;
37885;SDS011;23726;52.520;13.434;2022-10-30T09:25:45;16.65;;;11.35;;
37885;SDS011;23726;52.520;13.434;2022-10-30T09:28:10;14.45;;;11.73;;
37885;SDS011;23726;52.520;13.434;2022-10-30T09:30:36;13.98;;;11.05;;
37885;SDS011;23726;52.520;13.434;2022-10-30T09:33:01;16.42;;;11.32;;
37885;SDS011;23726;52.520;13.434;2022-10-30T09:35:27;15.05;;;11.05;;
37885;SDS011;23726;52.520;13.434;2022-10-30T09:37:53;13.57;;;10.95;;
37885;SDS011;23726;52.520;13.434;2022-10-30T09:43:10;17.23;;;11.00;;
37885;SDS011;23726;52.520;13.434;2022-10-30T09:51:29;13.57;;;11.02;;
37885;SDS011;23726;52.520;13.434;2022-10-30T09:57:05;14.18;;;10.60;;
37885;SDS011;23726;52.520;13.434;2022-10-30T09:59:50;14.13;;;10.63;;
37885;SDS011;23726;52.520;13.434;2022-10-30T10:02:33;15.07;;;10.70;;
37885;SDS011;23726;52.520;13.434;2022-10-30T10:05:15;15.27;;;11.65;;
37885;SDS011;23726;52.520;13.434;2022-10-30T10:07:51;14.88;;;11.07;;
37885;SDS011;23726;52.520;13.434;2022-10-30T10:10:31;12.43;;;10.60;;
37885;SDS011;23726;52.520;13.434;2022-10-30T10:13:04;14.45;;;10.30;;
37885;SDS011;23726;52.520;13.434;2022-10-30T10:15:42;13.50;;;10.48;;
37885;SDS011;23726;52.520;13.434;2022-10-30T10:18:22;13.13;;;10.40;;
37885;SDS011;23726;52.520;13.434;2022-10-30T10:20:52;13.77;;;11.23;;
37885;SDS011;23726;52.520;13.434;2022-10-30T10:26:09;14.05;;;10.63;;
37885;SDS011;23726;52.520;13.434;2022-10-30T10:28:54;12.70;;;10.10;;
37885;SDS011;23726;52.520;13.434;2022-10-30T10:31:36;15.48;;;10.57;;
37885;SDS011;23726;52.520;13.434;2022-10-30T10:36:45;12.50;;;10.68;;
37885;SDS011;23726;52.520;13.434;2022-10-30T10:39:28;14.15;;;10.38;;
37885;SDS011;23726;52.520;13.434;2022-10-30T10:42:16;17.38;;;8.82;;
37885;SDS011;23726;52.520;13.434;2022-10-30T10:45:17;16.53;;;8.50;;
37885;SDS011;23726;52.520;13.434;2022-10-30T10:48:03;14.25;;;7.93;;
37885;SDS011;23726;52.520;13.434;2022-10-30T10:50:35;15.43;;;8.75;;
37885;SDS011;23726;52.520;13.434;2022-10-30T10:53:09;16.15;;;8.90;;
37885;SDS011;23726;52.520;13.434;2022-10-30T10:55:42;16.23;;;8.52;;
37885;SDS011;23726;52.520;13.434;2022-10-30T10:58:15;13.30;;;8.43;;
37885;SDS011;23726;52.520;13.434;2022-10-30T11:01:00;13.02;;;8.60;;
37885;SDS011;23726;52.520;13.434;2022-10-30T11:06:30;13.15;;;8.57;;
37885;SDS011;23726;52.520;13.434;2022-10-30T11:09:18;14.90;;;7.67;;
37885;SDS011;23726;52.520;13.434;2022-10-30T11:11:46;11.05;;;8.40;;
37885;SDS011;23726;52.520;13.434;2022-10-30T11:14:17;14.18;;;8.68;;
37885;SDS011;23726;52.520;13.434;2022-10-30T11:19:31;12.25;;;8.82;;
37885;SDS011;23726;52.520;13.434;2022-10-30T11:21:57;14.93;;;9.07;;
37885;SDS011;23726;52.520;13.434;2022-10-30T11:24:33;10.45;;;8.27;;
37885;SDS011;23726;52.520;13.434;2022-10-30T11:29:47;11.18;;;7.80;;
37885;SDS011;23726;52.520;13.434;2022-10-30T11:32:26;11.63;;;7.88;;
37885;SDS011;23726;52.520;13.434;2022-10-30T11:37:52;11.25;;;7.93;;
37885;SDS011;23726;52.520;13.434;2022-10-30T11:40:45;12.18;;;8.18;;
37885;SDS011;23726;52.520;13.434;2022-10-30T11:45:40;14.18;;;8.10;;
37885;SDS011;23726;52.520;13.434;2022-10-30T11:48:08;13.48;;;8.90;;
37885;SDS011;23726;52.520;13.434;2022-10-30T11:50:44;12.95;;;7.53;;
37885;SDS011;23726;52.520;13.434;2022-10-30T11:53:22;12.93;;;7.90;;
37885;SDS011;23726;52.520;13.434;2022-10-30T11:55:55;10.13;;;7.90;;
37885;SDS011;23726;52.520;13.434;2022-10-30T11:58:27;13.63;;;8.45;;
37885;SDS011;23726;52.520;13.434;2022-10-30T12:01:03;12.88;;;7.72;;
37885;SDS011;23726;52.520;13.434;2022-10-30T12:03:36;9.82;;;7.85;;
37885;SDS011;23726;52.520;13.434;2022-10-30T12:06:06;14.88;;;8.32;;
37885;SDS011;23726;52.520;13.434;2022-10-30T12:08:32;10.65;;;8.32;;
37885;SDS011;23726;52.520;13.434;2022-10-30T12:10:59;9.80;;;7.90;;
37885;SDS011;23726;52.520;13.434;2022-10-30T12:13:30;12.52;;;8.07;;
37885;SDS011;23726;52.520;13.434;2022-10-30T12:16:07;11.45;;;8.15;;
37885;SDS011;23726;52.520;13.434;2022-10-30T12:18:38;10.80;;;8.13;;
37885;SDS011;23726;52.520;13.434;2022-10-30T12:21:04;11.63;;;8.05;;
37885;SDS011;23726;52.520;13.434;2022-10-30T12:23:31;14.50;;;8.25;;
37885;SDS011;23726;52.520;13.434;2022-10-30T12:25:59;11.18;;;7.88;;
37885;SDS011;23726;52.520;13.434;2022-10-30T12:28:34;13.18;;;8.25;;
37885;SDS011;23726;52.520;13.434;2022-10-30T12:31:10;13.05;;;7.97;;
37885;SDS011;23726;52.520;13.434;2022-10-30T12:33:57;13.10;;;8.10;;
37885;SDS011;23726;52.520;13.434;2022-10-30T12:42:17;12.57;;;7.85;;
37885;SDS011;23726;52.520;13.434;2022-10-30T12:44:52;13.35;;;8.60;;
37885;SDS011;23726;52.520;13.434;2022-10-30T12:50:09;16.13;;;7.68;;
37885;SDS011;23726;52.520;13.434;2022-10-30T12:52:53;18.75;;;8.38;;
37885;SDS011;23726;52.520;13.434;2022-10-30T12:55:39;14.88;;;7.72;;
37885;SDS011;23726;52.520;13.434;2022-10-30T12:58:20;15.77;;;8.57;;
37885;SDS011;23726;52.520;13.434;2022-10-30T13:01:41;13.77;;;8.02;;
37885;SDS011;23726;52.520;13.434;2022-10-30T13:04:23;13.85;;;8.85;;
37885;SDS011;23726;52.520;13.434;2022-10-30T13:09:48;51.08;;;25.63;;
37885;SDS011;23726;52.520;13.434;2022-10-30T13:12:43;50.58;;;22.23;;
37885;SDS011;23726;52.520;13.434;2022-10-30T13:15:22;47.25;;;24.23;;
37885;SDS011;23726;52.520;13.434;2022-10-30T13:18:05;56.63;;;25.10;;
37885;SDS011;23726;52.520;13.434;2022-10-30T13:23:47;59.75;;;27.75;;
37885;SDS011;23726;52.520;13.434;2022-10-30T13:26:55;58.03;;;27.55;;
37885;SDS011;23726;52.520;13.434;2022-10-30T13:29:44;59.95;;;27.48;;
37885;SDS011;23726;52.520;13.434;2022-10-30T13:37:48;50.72;;;24.05;;
37885;SDS011;23726;52.520;13.434;2022-10-30T13:43:36;50.13;;;21.60;;
37885;SDS011;23726;52.520;13.434;2022-10-30T13:49:17;43.50;;;21.23;;
37885;SDS011;23726;52.520;13.434;2022-10-30T13:52:16;43.97;;;19.67;;
37885;SDS011;23726;52.520;13.434;2022-10-30T13:55:02;40.95;;;19.27;;
37885;SDS011;23726;52.520;13.434;2022-10-30T13:57:54;32.63;;;17.77;;
37885;SDS011;23726;52.520;13.434;2022-10-30T14:03:42;33.28;;;16.25;;
37885;SDS011;23726;52.520;13.434;2022-10-30T14:11:38;26.65;;;16.00;;
37885;SDS011;23726;52.520;13.434;2022-10-30T14:14:04;27.13;;;14.82;;
37885;SDS011;23726;52.520;13.434;2022-10-30T14:16:43;27.17;;;14.35;;
37885;SDS011;23726;52.520;13.434;2022-10-30T14:19:13;28.13;;;14.32;;
37885;SDS011;23726;52.520;13.434;2022-10-30T14:24:32;24.05;;;13.15;;
37885;SDS011;23726;52.520;13.434;2022-10-30T14:37:16;22.23;;;12.05;;
37885;SDS011;23726;52.520;13.434;2022-10-30T14:43:01;23.05;;;12.23;;
37885;SDS011;23726;52.520;13.434;2022-10-30T14:45:44;19.90;;;11.88;;
37885;SDS011;23726;52.520;13.434;2022-10-30T14:48:18;23.65;;;12.38;;
37885;SDS011;23726;52.520;13.434;2022-10-30T14:53:33;21.08;;;10.95;;
37885;SDS011;23726;52.520;13.434;2022-10-30T14:56:10;17.80;;;11.00;;
37885;SDS011;23726;52.520;13.434;2022-10-30T14:59:07;16.98;;;10.63;;
37885;SDS011;23726;52.520;13.434;2022-10-30T15:01:44;120.88;;;29.48;;
37885;SDS011;23726;52.520;13.434;2022-10-30T15:15:21;71.20;;;21.42;;
37885;SDS011;23726;52.520;13.434;2022-10-30T15:17:47;54.38;;;19.08;;
37885;SDS011;23726;52.520;13.434;2022-10-30T15:20:22;59.08;;;20.08;;
37885;SDS011;23726;52.520;13.434;2022-10-30T15:22:54;56.47;;;18.88;;
37885;SDS011;23726;52.520;13.434;2022-10-30T15:25:22;53.53;;;18.17;;
37885;SDS011;23726;52.520;13.434;2022-10-30T15:27:51;46.70;;;16.75;;
37885;SDS011;23726;52.520;13.434;2022-10-30T15:30:23;46.22;;;16.83;;
37885;SDS011;23726;52.520;13.434;2022-10-30T15:32:50;43.55;;;16.88;;
37885;SDS011;23726;52.520;13.434;2022-10-30T15:35:18;45.58;;;16.65;;
37885;SDS011;23726;52.520;13.434;2022-10-30T15:38:03;44.47;;;15.80;;
37885;SDS011;23726;52.520;13.434;2022-10-30T15:40:30;35.67;;;15.40;;
37885;SDS011;23726;52.520;13.434;2022-10-30T15:42:59;45.80;;;16.40;;
37885;SDS011;23726;52.520;13.434;2022-10-30T15:45:40;35.70;;;14.48;;
37885;SDS011;23726;52.520;13.434;2022-10-30T15:51:05;44.08;;;15.85;;
37885;SDS011;23726;52.520;13.434;2022-10-30T15:53:33;35.53;;;13.77;;
37885;SDS011;23726;52.520;13.434;2022-10-30T15:56:03;34.05;;;13.75;;
37885;SDS011;23726;52.520;13.434;2022-10-30T15:58:30;35.33;;;14.02;;
37885;SDS011;23726;52.520;13.434;2022-10-30T16:01:00;31.60;;;13.93;;
37885;SDS011;23726;52.520;13.434;2022-10-30T16:03:27;31.13;;;14.73;;
37885;SDS011;23726;52.520;13.434;2022-10-30T16:08:44;28.30;;;14.35;;
37885;SDS011;23726;52.520;13.434;2022-10-30T16:11:11;35.70;;;16.13;;
37885;SDS011;23726;52.520;13.434;2022-10-30T16:13:38;34.15;;;15.43;;
37885;SDS011;23726;52.520;13.434;2022-10-30T16:16:04;29.20;;;13.77;;
37885;SDS011;23726;52.520;13.434;2022-10-30T16:18:31;29.63;;;14.18;;
37885;SDS011;23726;52.520;13.434;2022-10-30T16:21:00;28.40;;;13.60;;
37885;SDS011;23726;52.520;13.434;2022-10-30T16:23:29;32.00;;;13.32;;
37885;SDS011;23726;52.520;13.434;2022-10-30T16:31:37;23.83;;;12.52;;
37885;SDS011;23726;52.520;13.434;2022-10-30T16:34:08;27.45;;;13.00;;
37885;SDS011;23726;52.520;13.434;2022-10-30T16:36:37;23.65;;;12.70;;